Parma — CUYH — position and weather

sailwx.info

Track history (hours):
 
Tides and Currents Weather Stations Pressure Air Temp Water Temp Dewpoint Dewpoint Depression Visibility Wind Speed Wind Dir Waves Ship Positions

Parma

Last reported at 2017-Sep-25 01:13 UTC. Time now 2017-Sep-25 09:45 UTC.
Position N 39°21' W 009°55'.

Length 28 m.

Type: Fishing. MMSI: 204815000.

Date/timePositionNaut miles runAvg speedWind from/ knotsBaromVisibWave heightAir tempDewpointWater temp
2017-Sep-25 01:13N 39°21' W 009°55'2 8.3
2017-Sep-25 01:00N 39°21' W 009°52'4 8.3
2017-Sep-25 00:30N 39°21' W 009°47'4 8.6
2017-Sep-25 00:00N 39°21' W 009°41'4 8.3
2017-Sep-24 23:30N 39°21' W 009°36'6 7.8
2017-Sep-24 22:47N 39°21' W 009°29'3 7.5
2017-Sep-24 22:25N 39°21' W 009°25'3 0.2
2017-Sep-24 09:05N 39°21' W 009°22'0 0.0
2017-Sep-24 08:55N 39°21' W 009°22'0 0.0
2017-Sep-24 08:26N 39°21' W 009°22'0 0.0
2017-Sep-24 04:09N 39°21' W 009°22'0 0.0
2017-Sep-24 03:58N 39°21' W 009°22'0 0.0
2017-Sep-24 03:27N 39°21' W 009°22'0 0.0
2017-Sep-24 02:43N 39°21' W 009°22'0 0.0
2017-Sep-24 02:15N 39°21' W 009°22'0 0.0
2017-Sep-24 01:45N 39°21' W 009°22'0 0.0
2017-Sep-24 01:30N 39°21' W 009°22'0 0.0
2017-Sep-24 01:00N 39°21' W 009°22'0 0.0
2017-Sep-24 00:26N 39°21' W 009°22'0 0.0
2017-Sep-23 21:35N 39°21' W 009°22'0 0.0
2017-Sep-23 21:06N 39°21' W 009°22'0 0.0
2017-Sep-23 21:00N 39°21' W 009°22'  
Track history (hours):
 
Tides and Currents Weather Stations Pressure Air Temp Water Temp Dewpoint Dewpoint Depression Visibility Wind Speed Wind Dir Waves Ship Positions

Parma

Last reported at 2017-Sep-25 01:13 UTC. Time now 2017-Sep-25 09:45 UTC.
Position N 39°21' W 009°55'.

Length 28 m.

Type: Fishing. MMSI: 204815000.

Date/timePositionNaut miles runAvg speedWind from/ knotsBaromVisibWave heightAir tempDewpointWater temp
2017-Sep-25 01:13N 39°21' W 009°55'2 8.3
2017-Sep-25 01:00N 39°21' W 009°52'4 8.3
2017-Sep-25 00:30N 39°21' W 009°47'4 8.6
2017-Sep-25 00:00N 39°21' W 009°41'4 8.3
2017-Sep-24 23:30N 39°21' W 009°36'6 7.8
2017-Sep-24 22:47N 39°21' W 009°29'3 7.5
2017-Sep-24 22:25N 39°21' W 009°25'3 0.2
2017-Sep-24 09:05N 39°21' W 009°22'0 0.0
2017-Sep-24 08:55N 39°21' W 009°22'0 0.0
2017-Sep-24 08:26N 39°21' W 009°22'0 0.0
2017-Sep-24 04:09N 39°21' W 009°22'0 0.0
2017-Sep-24 03:58N 39°21' W 009°22'0 0.0
2017-Sep-24 03:27N 39°21' W 009°22'0 0.0
2017-Sep-24 02:43N 39°21' W 009°22'0 0.0
2017-Sep-24 02:15N 39°21' W 009°22'0 0.0
2017-Sep-24 01:45N 39°21' W 009°22'0 0.0
2017-Sep-24 01:30N 39°21' W 009°22'0 0.0
2017-Sep-24 01:00N 39°21' W 009°22'0 0.0
2017-Sep-24 00:26N 39°21' W 009°22'0 0.0
2017-Sep-23 21:35N 39°21' W 009°22'0 0.0
2017-Sep-23 21:06N 39°21' W 009°22'0 0.0
2017-Sep-23 21:00N 39°21' W 009°22'  

Dump ship's entire track history